createdAt,value
2022-08-14T00:01:24.045Z,13.85
2022-08-14T00:04:35.162Z,14.27
2022-08-14T00:07:15.433Z,15.40
2022-08-14T00:10:49.351Z,15.05
2022-08-14T00:13:06.743Z,14.13
2022-08-14T00:15:52.821Z,13.57
2022-08-14T00:19:18.321Z,14.13
2022-08-14T00:21:43.509Z,12.52
2022-08-14T00:24:31.025Z,12.27
2022-08-14T00:27:16.044Z,12.03
2022-08-14T00:30:06.563Z,11.77
2022-08-14T00:32:56.458Z,12.73
2022-08-14T00:36:36.112Z,12.48
2022-08-14T00:38:46.940Z,12.40
2022-08-14T00:41:33.371Z,12.40
2022-08-14T00:44:21.452Z,12.05
2022-08-14T00:47:18.928Z,12.10
2022-08-14T00:50:07.293Z,12.13
2022-08-14T00:53:04.121Z,11.50
2022-08-14T00:55:50.974Z,11.33
2022-08-14T00:58:38.933Z,11.02
2022-08-14T01:01:33.530Z,10.98
2022-08-14T01:04:38.478Z,11.25
2022-08-14T01:07:27.275Z,11.63
2022-08-14T01:10:13.057Z,11.57
2022-08-14T01:13:02.058Z,12.40
2022-08-14T01:16:02.794Z,12.95
2022-08-14T01:19:06.865Z,13.40
2022-08-14T01:21:53.863Z,12.18
2022-08-14T01:24:39.397Z,12.10
2022-08-14T01:27:28.575Z,11.52
2022-08-14T01:30:16.819Z,11.32
2022-08-14T01:33:06.791Z,11.00
2022-08-14T01:36:03.429Z,11.13
2022-08-14T01:38:53.468Z,10.73
2022-08-14T01:41:39.800Z,10.43
2022-08-14T01:44:31.951Z,10.98
2022-08-14T01:47:22.246Z,10.50
2022-08-14T01:50:09.253Z,10.63
2022-08-14T01:52:58.823Z,11.00
2022-08-14T01:55:45.122Z,10.70
2022-08-14T01:58:31.272Z,10.57
2022-08-14T02:01:18.950Z,10.70
2022-08-14T02:04:05.178Z,11.15
2022-08-14T02:07:07.306Z,10.30
2022-08-14T02:10:01.354Z,10.60
2022-08-14T02:12:54.070Z,11.43
2022-08-14T02:15:43.563Z,11.70
2022-08-14T02:18:32.589Z,11.13
2022-08-14T02:21:19.482Z,11.43
2022-08-14T02:24:39.617Z,11.48
2022-08-14T02:28:22.234Z,16.75
2022-08-14T02:30:20.243Z,15.25
2022-08-14T02:33:07.277Z,14.20
2022-08-14T02:36:00.599Z,13.07
2022-08-14T02:38:59.213Z,12.55
2022-08-14T02:41:52.427Z,12.45
2022-08-14T02:44:39.465Z,12.00
2022-08-14T02:47:26.584Z,11.73
2022-08-14T02:50:11.607Z,12.00
2022-08-14T02:53:03.037Z,12.55
2022-08-14T02:55:48.700Z,12.70
2022-08-14T02:58:38.573Z,11.52
2022-08-14T03:01:31.499Z,11.48
2022-08-14T03:04:30.811Z,11.77
2022-08-14T03:07:17.144Z,11.13
2022-08-14T03:10:25.492Z,11.27
2022-08-14T03:13:07.404Z,11.52
2022-08-14T03:16:09.276Z,11.60
2022-08-14T03:19:09.824Z,12.43
2022-08-14T03:21:57.223Z,11.32
2022-08-14T03:24:42.778Z,11.85
2022-08-14T03:27:35.293Z,11.55
2022-08-14T03:30:39.070Z,11.80
2022-08-14T03:33:27.751Z,12.27
2022-08-14T03:37:37.311Z,11.88
2022-08-14T03:39:24.167Z,12.00
2022-08-14T03:42:19.159Z,11.75
2022-08-14T03:45:27.671Z,12.05
2022-08-14T03:48:30.695Z,12.07
2022-08-14T03:51:17.213Z,11.43
2022-08-14T03:54:06.068Z,11.32
2022-08-14T03:56:54.454Z,11.90
2022-08-14T03:59:40.064Z,12.35
2022-08-14T04:02:32.882Z,12.60
2022-08-14T04:05:19.069Z,13.00
2022-08-14T04:08:23.030Z,12.80
2022-08-14T04:11:13.523Z,13.10
2022-08-14T04:14:01.268Z,13.38
2022-08-14T04:16:47.362Z,13.17
2022-08-14T04:19:33.213Z,12.38
2022-08-14T04:22:22.137Z,13.23
2022-08-14T04:25:08.398Z,13.63
2022-08-14T04:28:03.361Z,13.13
2022-08-14T04:30:48.961Z,12.97
2022-08-14T04:33:34.510Z,12.30
2022-08-14T04:36:20.063Z,13.13
2022-08-14T04:39:27.993Z,13.38
2022-08-14T04:42:33.003Z,12.90
2022-08-14T04:45:23.700Z,12.93
2022-08-14T04:48:39.929Z,13.82
2022-08-14T04:51:21.538Z,13.50
2022-08-14T04:54:08.828Z,13.07
2022-08-14T04:56:56.391Z,13.30
2022-08-14T04:59:42.859Z,12.63
2022-08-14T05:02:28.576Z,12.48
2022-08-14T05:05:14.167Z,12.93
2022-08-14T05:08:12.233Z,13.30
2022-08-14T05:11:19.325Z,12.63
2022-08-14T05:14:17.150Z,13.27
2022-08-14T05:17:12.051Z,13.48
2022-08-14T05:21:58.292Z,13.05
2022-08-14T05:23:03.658Z,12.63
2022-08-14T05:25:54.933Z,12.25
2022-08-14T05:28:44.767Z,12.03
2022-08-14T05:31:39.434Z,12.30
2022-08-14T05:34:31.892Z,12.80
2022-08-14T05:37:17.352Z,13.23
2022-08-14T05:40:03.070Z,12.60
2022-08-14T05:42:52.712Z,13.23
2022-08-14T05:45:38.887Z,11.95
2022-08-14T05:48:33.385Z,12.63
2022-08-14T05:51:21.091Z,12.90
2022-08-14T05:54:13.503Z,11.80
2022-08-14T05:57:05.863Z,11.63
2022-08-14T05:59:50.831Z,12.38
2022-08-14T06:02:36.792Z,12.90
2022-08-14T06:05:28.583Z,12.65
2022-08-14T06:08:36.701Z,12.55
2022-08-14T06:11:30.531Z,12.27
2022-08-14T06:14:21.445Z,12.30
2022-08-14T06:17:09.429Z,11.68
2022-08-14T06:20:01.035Z,11.52
2022-08-14T06:22:47.200Z,11.35
2022-08-14T06:25:35.023Z,11.13
2022-08-14T06:28:29.425Z,11.32
2022-08-14T06:31:15.405Z,10.82
2022-08-14T06:35:02.544Z,12.07
2022-08-14T06:37:05.973Z,11.18
2022-08-14T06:39:51.076Z,11.87
2022-08-14T06:42:39.177Z,12.10
2022-08-14T06:45:27.069Z,12.82
2022-08-14T06:48:17.976Z,12.23
2022-08-14T06:51:06.870Z,12.60
2022-08-14T06:53:52.186Z,11.87
2022-08-14T06:56:37.472Z,12.35
2022-08-14T06:59:24.004Z,12.77
2022-08-14T07:02:28.840Z,11.30
2022-08-14T07:05:33.210Z,11.27
2022-08-14T07:08:29.610Z,10.93
2022-08-14T07:11:16.916Z,9.43
2022-08-14T07:14:04.890Z,11.48
2022-08-14T07:16:50.153Z,10.15
2022-08-14T07:19:35.143Z,10.23
2022-08-14T07:22:21.695Z,9.80
2022-08-14T07:25:07.288Z,9.57
2022-08-14T07:27:54.024Z,10.48
2022-08-14T07:30:41.983Z,10.35
2022-08-14T07:33:50.730Z,10.50
2022-08-14T07:36:36.182Z,10.80
2022-08-14T07:39:27.713Z,10.10
2022-08-14T07:42:14.182Z,10.60
2022-08-14T07:45:05.647Z,10.52
2022-08-14T07:47:51.682Z,11.98
2022-08-14T07:50:37.296Z,11.23
2022-08-14T07:53:22.834Z,10.05
2022-08-14T07:56:44.385Z,12.68
2022-08-14T07:59:17.990Z,11.88
2022-08-14T08:02:04.818Z,11.35
2022-08-14T08:04:55.111Z,11.00
2022-08-14T08:07:45.787Z,10.38
2022-08-14T08:11:01.853Z,10.50
2022-08-14T08:13:41.606Z,11.60
2022-08-14T08:16:34.526Z,11.38
2022-08-14T08:19:19.663Z,11.00
2022-08-14T08:22:05.418Z,11.27
2022-08-14T08:24:50.975Z,11.43
2022-08-14T08:27:36.499Z,10.88
2022-08-14T08:30:32.376Z,10.90
2022-08-14T08:33:22.716Z,10.47
2022-08-14T08:36:12.833Z,10.43
2022-08-14T08:39:18.147Z,10.18
2022-08-14T08:42:06.924Z,9.98
2022-08-14T08:44:55.716Z,10.32
2022-08-14T08:47:41.279Z,10.00
2022-08-14T08:53:15.920Z,10.27
2022-08-14T08:56:02.365Z,10.00
2022-08-14T08:58:47.402Z,10.27
2022-08-14T09:01:34.027Z,10.10
2022-08-14T09:04:21.454Z,9.70
2022-08-14T09:07:10.149Z,9.98
2022-08-14T09:09:59.847Z,9.10
2022-08-14T09:12:46.855Z,9.13
2022-08-14T09:15:42.796Z,9.27
2022-08-14T09:18:28.139Z,9.73
2022-08-14T09:21:13.145Z,9.55
2022-08-14T09:24:29.566Z,9.75
2022-08-14T09:27:07.153Z,9.20
2022-08-14T09:29:54.275Z,8.90
2022-08-14T09:33:09.179Z,8.50
2022-08-14T09:36:16.770Z,8.80
2022-08-14T09:39:23.249Z,9.23
2022-08-14T09:42:51.036Z,9.63
2022-08-14T09:45:53.409Z,8.33
2022-08-14T09:48:39.405Z,8.68
2022-08-14T09:51:32.624Z,8.65
2022-08-14T09:54:22.951Z,8.77
2022-08-14T09:57:13.920Z,9.10
2022-08-14T10:00:28.693Z,8.63
2022-08-14T10:03:34.055Z,8.45
2022-08-14T10:06:25.135Z,8.57
2022-08-14T10:09:16.761Z,8.60
2022-08-14T10:12:04.496Z,8.48
2022-08-14T10:14:53.275Z,7.53
2022-08-14T10:17:39.722Z,8.20
2022-08-14T10:20:40.383Z,8.07
2022-08-14T10:23:30.169Z,7.90
2022-08-14T10:26:22.951Z,8.07
2022-08-14T10:29:19.752Z,8.00
2022-08-14T10:32:18.285Z,8.02
2022-08-14T10:35:16.013Z,7.80
2022-08-14T10:38:01.280Z,7.50
2022-08-14T10:40:52.193Z,8.00
2022-08-14T10:44:04.304Z,8.73
2022-08-14T10:47:39.771Z,7.47
2022-08-14T10:50:12.113Z,7.97
2022-08-14T10:53:05.407Z,7.47
2022-08-14T10:55:59.121Z,8.02
2022-08-14T10:58:43.834Z,7.23
2022-08-14T11:01:40.153Z,7.43
2022-08-14T11:04:30.495Z,7.15
2022-08-14T11:07:21.060Z,7.25
2022-08-14T11:10:10.470Z,7.15
2022-08-14T11:12:57.708Z,7.40
2022-08-14T11:15:43.288Z,8.57
2022-08-14T11:18:39.898Z,11.35
2022-08-14T11:21:30.092Z,10.07
2022-08-14T11:24:54.703Z,9.25
2022-08-14T11:27:33.097Z,9.60
2022-08-14T11:30:51.225Z,8.88
2022-08-14T11:33:34.780Z,8.65
2022-08-14T11:36:56.919Z,8.95
2022-08-14T11:39:37.094Z,8.13
2022-08-14T11:42:58.142Z,7.60
2022-08-14T11:45:39.171Z,8.27
2022-08-14T11:49:03.050Z,8.10
2022-08-14T11:51:36.249Z,13.27
2022-08-14T11:54:36.270Z,12.25
2022-08-14T11:57:22.724Z,11.83
2022-08-14T12:00:19.418Z,13.57
2022-08-14T12:03:05.351Z,13.75
2022-08-14T12:05:50.465Z,13.60
2022-08-14T12:08:38.676Z,13.18
2022-08-14T12:11:24.043Z,12.20
2022-08-14T12:14:13.536Z,15.70
2022-08-14T12:17:15.546Z,16.15
2022-08-14T12:20:10.061Z,14.98
2022-08-14T12:23:19.270Z,14.30
2022-08-14T12:26:12.194Z,12.87
2022-08-14T12:29:16.592Z,13.90
2022-08-14T12:32:08.863Z,13.60
2022-08-14T12:34:55.266Z,12.90
2022-08-14T12:37:49.046Z,12.18
2022-08-14T12:40:55.979Z,12.53
2022-08-14T12:43:48.001Z,11.45
2022-08-14T12:46:40.560Z,11.25
2022-08-14T12:49:28.879Z,11.23
2022-08-14T12:52:17.216Z,11.75
2022-08-14T12:55:07.140Z,11.23
2022-08-14T12:57:53.426Z,11.07
2022-08-14T13:01:16.072Z,10.93
2022-08-14T13:04:14.789Z,10.07
2022-08-14T13:07:10.375Z,10.40
2022-08-14T13:09:56.382Z,9.90
2022-08-14T13:13:11.622Z,10.20
2022-08-14T13:15:57.230Z,10.95
2022-08-14T13:18:46.692Z,9.65
2022-08-14T13:22:05.977Z,9.50
2022-08-14T13:24:39.621Z,9.60
2022-08-14T13:27:25.260Z,9.95
2022-08-14T13:30:21.212Z,9.38
2022-08-14T13:33:14.881Z,8.93
2022-08-14T13:36:03.457Z,9.30
2022-08-14T13:38:50.190Z,8.97
2022-08-14T13:41:36.391Z,9.07
2022-08-14T13:44:25.429Z,8.45
2022-08-14T13:47:12.093Z,8.60
2022-08-14T13:50:02.861Z,8.68
2022-08-14T13:52:55.036Z,8.50
2022-08-14T13:55:42.393Z,8.88
2022-08-14T13:58:34.492Z,8.52
2022-08-14T14:01:21.366Z,8.10
2022-08-14T14:04:08.986Z,7.90
2022-08-14T14:07:03.463Z,7.70
2022-08-14T14:09:50.978Z,8.15
2022-08-14T14:12:41.242Z,7.97
2022-08-14T14:15:28.713Z,7.97
2022-08-14T14:18:33.864Z,7.93
2022-08-14T14:21:22.337Z,7.57
2022-08-14T14:24:07.981Z,7.93
2022-08-14T14:27:23.742Z,7.85
2022-08-14T14:30:27.688Z,7.45
2022-08-14T14:33:42.522Z,7.25
2022-08-14T14:36:28.489Z,8.07
2022-08-14T14:39:19.930Z,7.85
2022-08-14T14:42:08.234Z,7.22
2022-08-14T14:45:17.924Z,7.07
2022-08-14T14:48:06.518Z,7.53
2022-08-14T14:50:53.001Z,7.17
2022-08-14T14:53:39.528Z,8.00
2022-08-14T14:56:48.178Z,7.70
2022-08-14T14:59:35.776Z,7.20
2022-08-14T15:02:34.633Z,7.20
2022-08-14T15:05:23.198Z,7.00
2022-08-14T15:08:17.176Z,7.13
2022-08-14T15:11:13.679Z,11.32
2022-08-14T15:14:00.405Z,19.83
2022-08-14T15:16:45.625Z,29.63
2022-08-14T15:19:32.368Z,40.07
2022-08-14T15:22:17.810Z,62.63
2022-08-14T15:25:03.102Z,63.67
2022-08-14T15:27:51.172Z,73.97
2022-08-14T15:30:41.879Z,68.38
2022-08-14T15:34:13.129Z,64.07
2022-08-14T15:36:51.767Z,64.43
2022-08-14T15:39:38.517Z,62.53
2022-08-14T15:42:24.632Z,62.33
2022-08-14T15:45:16.778Z,62.70
2022-08-14T15:48:02.465Z,61.00
2022-08-14T15:50:50.901Z,60.13
2022-08-14T15:53:37.083Z,55.58
2022-08-14T15:56:42.535Z,54.95
2022-08-14T15:59:48.688Z,56.03
2022-08-14T16:02:34.908Z,52.87
2022-08-14T16:05:25.423Z,49.65
2022-08-14T16:08:24.386Z,48.08
2022-08-14T16:11:15.078Z,43.92
2022-08-14T16:14:01.041Z,41.45
2022-08-14T16:16:51.470Z,40.40
2022-08-14T16:19:47.567Z,42.25
2022-08-14T16:22:58.352Z,40.42
2022-08-14T16:25:45.074Z,37.60
2022-08-14T16:28:34.566Z,31.48
2022-08-14T16:31:21.054Z,15.30
2022-08-14T16:34:46.374Z,15.65
2022-08-14T16:37:16.621Z,13.60
2022-08-14T16:40:03.338Z,10.98
2022-08-14T16:43:04.473Z,9.57
2022-08-14T16:45:59.188Z,7.23
2022-08-14T16:48:54.781Z,6.07
2022-08-14T16:51:44.068Z,6.45
2022-08-14T16:54:34.916Z,6.85
2022-08-14T16:57:32.380Z,9.00
2022-08-14T17:00:29.073Z,8.27
2022-08-14T17:03:14.600Z,6.72
2022-08-14T17:06:00.583Z,5.90
2022-08-14T17:08:46.866Z,5.70
2022-08-14T17:11:33.252Z,6.22
2022-08-14T17:14:25.526Z,5.03
2022-08-14T17:17:11.490Z,5.78
2022-08-14T17:20:39.342Z,5.70
2022-08-14T17:23:14.851Z,5.00
2022-08-14T17:26:00.006Z,5.22
2022-08-14T17:29:07.838Z,5.03
2022-08-14T17:32:01.786Z,5.18
2022-08-14T17:34:50.326Z,4.95
2022-08-14T17:37:45.890Z,5.18
2022-08-14T17:40:33.108Z,5.40
2022-08-14T17:43:18.598Z,5.13
2022-08-14T17:46:06.451Z,5.63
2022-08-14T17:49:16.828Z,5.03
2022-08-14T17:52:16.759Z,5.18
2022-08-14T17:55:06.951Z,5.35
2022-08-14T17:57:54.480Z,5.07
2022-08-14T18:00:40.911Z,5.53
2022-08-14T18:03:50.292Z,5.22
2022-08-14T18:06:39.592Z,5.00
2022-08-14T18:09:56.209Z,5.15
2022-08-14T18:12:43.986Z,5.30
2022-08-14T18:15:36.841Z,5.07
2022-08-14T18:18:22.699Z,5.00
2022-08-14T18:21:43.112Z,5.25
2022-08-14T18:24:28.137Z,5.45
2022-08-14T18:27:22.820Z,4.77
2022-08-14T18:30:31.669Z,5.45
2022-08-14T18:33:20.992Z,5.18
2022-08-14T18:36:46.732Z,5.22
2022-08-14T18:39:26.015Z,6.03
2022-08-14T18:42:23.831Z,8.27
2022-08-14T18:45:15.710Z,6.88
2022-08-14T18:48:19.315Z,7.40
2022-08-14T18:51:10.976Z,6.72
2022-08-14T18:53:59.375Z,5.97
2022-08-14T18:57:05.217Z,6.00
2022-08-14T18:59:50.683Z,6.20
2022-08-14T19:02:36.029Z,5.95
2022-08-14T19:05:57.265Z,6.68
2022-08-14T19:08:45.770Z,6.20
2022-08-14T19:11:32.300Z,6.07
2022-08-14T19:14:44.923Z,6.60
2022-08-14T19:18:15.113Z,6.63
2022-08-14T19:21:03.456Z,6.32
2022-08-14T19:24:26.763Z,6.32
2022-08-14T19:27:23.246Z,6.17
2022-08-14T19:30:20.258Z,6.30
2022-08-14T19:33:55.562Z,6.20
2022-08-14T19:37:05.173Z,6.60
2022-08-14T19:39:56.046Z,6.18
2022-08-14T19:42:46.805Z,6.60
2022-08-14T19:45:33.813Z,6.38
2022-08-14T19:48:19.035Z,6.03
2022-08-14T19:51:05.912Z,6.35
2022-08-14T19:54:03.219Z,5.97
2022-08-14T19:56:49.393Z,5.67
2022-08-14T19:59:57.985Z,6.03
2022-08-14T20:02:50.374Z,5.85
2022-08-14T20:05:46.389Z,5.85
2022-08-14T20:11:01.431Z,5.90
2022-08-14T20:12:01.565Z,5.83
2022-08-14T20:14:51.745Z,5.57
2022-08-14T20:17:40.370Z,6.03
2022-08-14T20:20:31.551Z,5.80
2022-08-14T20:23:18.866Z,6.22
2022-08-14T20:26:04.093Z,5.70
2022-08-14T20:28:55.658Z,5.55
2022-08-14T20:31:40.515Z,5.70
2022-08-14T20:34:40.162Z,5.85
2022-08-14T20:37:37.090Z,5.45
2022-08-14T20:40:24.235Z,5.53
2022-08-14T20:43:37.326Z,5.57
2022-08-14T20:46:31.610Z,6.05
2022-08-14T20:49:18.823Z,5.22
2022-08-14T20:52:19.215Z,5.47
2022-08-14T20:55:22.669Z,5.70
2022-08-14T20:58:41.938Z,5.10
2022-08-14T21:01:33.601Z,5.35
2022-08-14T21:04:33.790Z,5.47
2022-08-14T21:07:24.812Z,5.40
2022-08-14T21:10:33.256Z,5.17
2022-08-14T21:14:09.204Z,5.43
2022-08-14T21:16:35.730Z,5.20
2022-08-14T21:19:26.167Z,5.30
2022-08-14T21:22:12.378Z,5.22
2022-08-14T21:25:02.182Z,5.90
2022-08-14T21:27:56.977Z,6.03
2022-08-14T21:30:51.137Z,5.90
2022-08-14T21:33:39.918Z,6.00
2022-08-14T21:36:30.914Z,5.80
2022-08-14T21:39:19.529Z,5.80
2022-08-14T21:42:06.182Z,5.80
2022-08-14T21:44:53.420Z,5.60
2022-08-14T21:47:39.054Z,5.80
2022-08-14T21:50:56.348Z,5.50
2022-08-14T21:53:34.171Z,7.33
2022-08-14T21:56:19.288Z,6.38
2022-08-14T21:59:09.040Z,7.03
2022-08-14T22:02:01.860Z,6.82
2022-08-14T22:04:48.654Z,7.25
2022-08-14T22:07:36.786Z,7.17
2022-08-14T22:10:24.258Z,7.10
2022-08-14T22:13:18.155Z,6.85
2022-08-14T22:16:04.266Z,6.70
2022-08-14T22:18:51.339Z,6.63
2022-08-14T22:21:37.909Z,6.63
2022-08-14T22:24:38.237Z,6.57
2022-08-14T22:27:37.535Z,6.20
2022-08-14T22:30:42.751Z,6.20
2022-08-14T22:33:30.619Z,6.50
2022-08-14T22:36:42.173Z,5.80
2022-08-14T22:40:17.084Z,6.20
2022-08-14T22:42:40.903Z,5.85
2022-08-14T22:45:55.306Z,6.38
2022-08-14T22:48:41.549Z,6.55
2022-08-14T22:51:28.143Z,6.90
2022-08-14T22:54:52.453Z,6.80
2022-08-14T22:57:19.574Z,6.68
2022-08-14T23:00:13.419Z,6.35
2022-08-14T23:03:02.561Z,6.45
2022-08-14T23:05:52.846Z,6.63
2022-08-14T23:12:42.767Z,6.93
2022-08-14T23:15:28.963Z,6.45
2022-08-14T23:18:15.520Z,6.50
2022-08-14T23:21:01.536Z,5.87
2022-08-14T23:23:46.535Z,6.32
2022-08-14T23:26:47.733Z,6.60
2022-08-14T23:29:37.828Z,5.68
2022-08-14T23:32:24.859Z,6.80
2022-08-14T23:35:10.124Z,6.80
2022-08-14T23:38:01.190Z,6.00
2022-08-14T23:40:47.312Z,6.57
2022-08-14T23:43:32.529Z,6.60
2022-08-14T23:46:20.391Z,6.45
2022-08-14T23:49:06.180Z,6.07
2022-08-14T23:51:59.694Z,6.20
2022-08-14T23:54:57.047Z,6.80
2022-08-14T23:57:57.603Z,6.75
